createdAt,value
2018-09-12T01:30:22.983Z,57.18
2018-09-12T01:30:23.555Z,57.21
2018-09-12T01:30:24.154Z,57.18
2018-09-12T01:30:24.754Z,57.18
2018-09-12T01:30:25.354Z,57.28
2018-09-12T01:30:25.957Z,57.18
2018-09-12T01:30:26.553Z,57.18
2018-09-12T01:30:27.156Z,57.18
2018-09-12T01:31:21.656Z,56.44
2018-09-12T01:31:22.230Z,56.60
2018-09-12T01:31:22.829Z,56.51
2018-09-12T01:31:23.429Z,56.60
2018-09-12T01:31:24.030Z,56.70
2018-09-12T01:31:24.630Z,56.60
2018-09-12T01:31:25.260Z,56.60
2018-09-12T01:31:25.833Z,56.70
2018-09-12T01:32:19.309Z,56.51
2018-09-12T01:32:19.884Z,56.70
2018-09-12T01:32:20.484Z,56.51
2018-09-12T01:32:21.083Z,56.22
2018-09-12T01:32:21.684Z,56.60
2018-09-12T01:32:22.283Z,56.12
2018-09-12T01:32:22.883Z,56.60
2018-09-12T01:32:23.483Z,56.60
2018-09-12T01:33:16.961Z,55.16
2018-09-12T01:33:17.536Z,55.07
2018-09-12T01:33:18.135Z,54.97
2018-09-12T01:33:18.735Z,55.07
2018-09-12T01:33:19.335Z,55.16
2018-09-12T01:33:19.934Z,55.07
2018-09-12T01:33:20.536Z,55.16
2018-09-12T01:33:21.134Z,55.07
2018-09-12T01:34:14.613Z,55.55
2018-09-12T01:34:15.188Z,55.74
2018-09-12T01:34:15.837Z,55.83
2018-09-12T01:34:16.390Z,55.93
2018-09-12T01:34:16.987Z,55.83
2018-09-12T01:34:17.587Z,55.74
2018-09-12T01:34:18.187Z,55.83
2018-09-12T01:34:18.786Z,55.74
2018-09-12T01:35:12.266Z,55.16
2018-09-12T01:35:12.840Z,55.38
2018-09-12T01:35:13.441Z,55.35
2018-09-12T01:35:14.040Z,55.26
2018-09-12T01:35:14.639Z,55.38
2018-09-12T01:35:15.241Z,55.35
2018-09-12T01:35:15.840Z,55.45
2018-09-12T01:35:16.439Z,54.88
2018-09-12T01:36:09.916Z,54.78
2018-09-12T01:36:10.493Z,54.68
2018-09-12T01:36:11.092Z,54.88
2018-09-12T01:36:11.691Z,54.88
2018-09-12T01:36:12.291Z,54.78
2018-09-12T01:36:12.892Z,54.78
2018-09-12T01:36:13.491Z,54.90
2018-09-12T01:36:14.091Z,54.78
2018-09-12T01:37:08.595Z,55.26
2018-09-12T01:37:09.167Z,55.26
2018-09-12T01:37:09.768Z,55.26
2018-09-12T01:37:10.367Z,54.97
2018-09-12T01:37:10.966Z,55.26
2018-09-12T01:37:11.570Z,54.97
2018-09-12T01:37:12.167Z,55.26
2018-09-12T01:37:12.767Z,55.26
2018-09-12T01:38:06.244Z,53.91
2018-09-12T01:38:06.822Z,53.91
2018-09-12T01:38:07.421Z,53.34
2018-09-12T01:38:08.023Z,53.34
2018-09-12T01:38:08.620Z,53.53
2018-09-12T01:38:09.220Z,53.34
2018-09-12T01:38:09.819Z,53.34
2018-09-12T01:38:10.419Z,53.34
2018-09-12T01:39:03.897Z,53.53
2018-09-12T01:39:04.472Z,53.63
2018-09-12T01:39:05.073Z,53.53
2018-09-12T01:39:05.673Z,53.53
2018-09-12T01:39:06.275Z,53.53
2018-09-12T01:39:06.873Z,53.56
2018-09-12T01:39:07.471Z,53.34
2018-09-12T01:39:08.072Z,53.53
2018-09-12T01:40:02.576Z,52.48
2018-09-12T01:40:03.181Z,52.57
2018-09-12T01:40:03.747Z,52.69
2018-09-12T01:40:04.346Z,52.67
2018-09-12T01:40:04.946Z,52.67
2018-09-12T01:40:05.547Z,52.67
2018-09-12T01:40:06.146Z,52.76
2018-09-12T01:40:06.746Z,52.76
2018-09-12T01:41:00.226Z,51.32
2018-09-12T01:41:00.798Z,51.45
2018-09-12T01:41:01.398Z,51.42
2018-09-12T01:41:01.997Z,51.42
2018-09-12T01:41:02.606Z,51.32
2018-09-12T01:41:03.199Z,51.32
2018-09-12T01:41:03.798Z,51.45
2018-09-12T01:41:04.397Z,51.35
2018-09-12T01:41:57.876Z,51.61
2018-09-12T01:41:58.451Z,51.64
2018-09-12T01:41:59.050Z,51.61
2018-09-12T01:41:59.652Z,51.61
2018-09-12T01:42:00.251Z,51.71
2018-09-12T01:42:00.851Z,51.61
2018-09-12T01:42:01.450Z,51.71
2018-09-12T01:42:02.051Z,51.71
2018-09-12T01:42:55.529Z,50.94
2018-09-12T01:42:56.104Z,51.23
2018-09-12T01:42:56.702Z,51.04
2018-09-12T01:42:57.305Z,51.23
2018-09-12T01:42:57.903Z,51.32
2018-09-12T01:42:58.506Z,51.32
2018-09-12T01:42:59.102Z,51.23
2018-09-12T01:42:59.703Z,51.42
2018-09-12T01:43:53.178Z,51.61
2018-09-12T01:43:53.759Z,51.61
2018-09-12T01:43:54.355Z,51.61
2018-09-12T01:43:54.957Z,51.51
2018-09-12T01:43:55.554Z,51.51
2018-09-12T01:43:56.155Z,51.42
2018-09-12T01:43:56.757Z,51.23
2018-09-12T01:43:57.356Z,51.51
2018-09-12T01:44:50.833Z,51.61
2018-09-12T01:44:51.407Z,51.42
2018-09-12T01:44:52.007Z,51.45
2018-09-12T01:44:52.609Z,51.54
2018-09-12T01:44:53.210Z,51.64
2018-09-12T01:44:53.806Z,51.64
2018-09-12T01:44:54.406Z,51.61
2018-09-12T01:44:55.006Z,51.61
2018-09-12T01:45:48.486Z,51.54
2018-09-12T01:45:49.059Z,51.61
2018-09-12T01:45:49.658Z,51.61
2018-09-12T01:45:50.264Z,51.32
2018-09-12T01:45:50.857Z,51.42
2018-09-12T01:45:51.457Z,51.32
2018-09-12T01:45:52.058Z,51.35
2018-09-12T01:45:52.660Z,51.32
2018-09-12T01:46:46.135Z,51.51
2018-09-12T01:46:46.712Z,51.42
2018-09-12T01:46:47.308Z,51.61
2018-09-12T01:46:47.911Z,51.61
2018-09-12T01:46:48.508Z,51.51
2018-09-12T01:46:49.109Z,51.61
2018-09-12T01:46:49.708Z,51.61
2018-09-12T01:46:50.309Z,51.42
2018-09-12T01:47:43.787Z,51.14
2018-09-12T01:47:44.365Z,51.04
2018-09-12T01:47:44.961Z,51.16
2018-09-12T01:47:45.562Z,51.04
2018-09-12T01:47:46.162Z,50.94
2018-09-12T01:47:46.763Z,51.04
2018-09-12T01:47:47.362Z,50.94
2018-09-12T01:47:47.961Z,51.14
2018-09-12T01:48:42.460Z,50.94
2018-09-12T01:48:43.039Z,50.94
2018-09-12T01:48:43.637Z,50.94
2018-09-12T01:48:44.242Z,50.84
2018-09-12T01:48:44.836Z,50.75
2018-09-12T01:48:45.436Z,50.78
2018-09-12T01:48:46.037Z,50.96
2018-09-12T01:48:46.638Z,50.75
2018-09-12T01:49:41.145Z,50.96
2018-09-12T01:49:41.713Z,50.75
2018-09-12T01:49:42.314Z,50.84
2018-09-12T01:49:42.919Z,50.75
2018-09-12T01:49:43.513Z,50.78
2018-09-12T01:49:44.112Z,50.96
2018-09-12T01:49:44.712Z,50.94
2018-09-12T01:49:45.312Z,50.78
2018-09-12T01:50:39.817Z,50.78
2018-09-12T01:50:40.390Z,51.16
2018-09-12T01:50:40.988Z,50.96
2018-09-12T01:50:41.590Z,50.87
2018-09-12T01:50:42.189Z,51.16
2018-09-12T01:50:42.788Z,51.06
2018-09-12T01:50:43.389Z,50.78
2018-09-12T01:50:43.990Z,51.06
2018-09-12T01:51:37.466Z,50.29
2018-09-12T01:51:38.042Z,50.29
2018-09-12T01:51:38.641Z,50.39
2018-09-12T01:51:39.241Z,50.39
2018-09-12T01:51:39.841Z,50.49
2018-09-12T01:51:40.442Z,50.39
2018-09-12T01:51:41.042Z,50.39
2018-09-12T01:51:41.641Z,50.39
2018-09-12T01:52:36.140Z,50.96
2018-09-12T01:52:36.716Z,51.06
2018-09-12T01:52:37.316Z,51.16
2018-09-12T01:52:37.921Z,51.06
2018-09-12T01:52:38.516Z,51.16
2018-09-12T01:52:39.116Z,51.16
2018-09-12T01:52:39.716Z,51.06
2018-09-12T01:52:40.315Z,51.06
2018-09-12T01:53:34.820Z,50.87
2018-09-12T01:53:35.407Z,50.68
2018-09-12T01:53:35.992Z,50.68
2018-09-12T01:53:36.594Z,50.58
2018-09-12T01:53:37.191Z,50.49
2018-09-12T01:53:37.795Z,50.58
2018-09-12T01:53:38.392Z,50.39
2018-09-12T01:53:38.992Z,50.20
2018-09-12T01:54:33.497Z,50.58
2018-09-12T01:54:34.068Z,50.39
2018-09-12T01:54:34.668Z,50.39
2018-09-12T01:54:35.268Z,50.29
2018-09-12T01:54:35.870Z,50.29
2018-09-12T01:54:36.472Z,50.29
2018-09-12T01:54:37.067Z,50.49
2018-09-12T01:54:37.666Z,50.39
2018-09-12T01:55:32.173Z,50.39
2018-09-12T01:55:32.743Z,50.39
2018-09-12T01:55:33.345Z,50.39
2018-09-12T01:55:33.943Z,50.10
2018-09-12T01:55:34.541Z,50.10
2018-09-12T01:55:35.146Z,50.10
2018-09-12T01:55:35.741Z,50.10
2018-09-12T01:55:36.341Z,50.01
2018-09-12T01:56:29.819Z,49.62
2018-09-12T01:56:30.396Z,49.33
2018-09-12T01:56:30.996Z,49.82
2018-09-12T01:56:31.596Z,49.82
2018-09-12T01:56:32.198Z,49.82
2018-09-12T01:56:32.805Z,49.72
2018-09-12T01:56:33.395Z,49.72
2018-09-12T01:56:33.996Z,49.82
2018-09-12T01:57:27.472Z,48.57
2018-09-12T01:57:28.049Z,48.57
2018-09-12T01:57:28.647Z,48.47
2018-09-12T01:57:29.248Z,48.57
2018-09-12T01:57:29.847Z,48.66
2018-09-12T01:57:30.448Z,48.76
2018-09-12T01:57:31.048Z,48.66
2018-09-12T01:57:31.649Z,48.85
2018-09-12T01:58:26.153Z,49.33
2018-09-12T01:58:26.722Z,49.24
2018-09-12T01:58:27.323Z,49.33
2018-09-12T01:58:27.925Z,49.33
2018-09-12T01:58:28.521Z,49.15
2018-09-12T01:58:29.121Z,49.15
2018-09-12T01:58:29.722Z,49.33
2018-09-12T01:58:30.323Z,49.33
2018-09-12T01:59:24.828Z,49.72
2018-09-12T01:59:25.399Z,49.62
2018-09-12T01:59:25.999Z,49.82
2018-09-12T01:59:26.599Z,49.91
2018-09-12T01:59:27.199Z,49.82
2018-09-12T01:59:27.799Z,49.82
2018-09-12T01:59:28.398Z,49.91
2018-09-12T01:59:28.999Z,49.91
2018-09-12T02:00:23.503Z,49.43
2018-09-12T02:00:24.074Z,49.43
2018-09-12T02:00:24.674Z,49.52
2018-09-12T02:00:25.276Z,49.52
2018-09-12T02:00:25.875Z,49.52
2018-09-12T02:00:26.474Z,49.52
2018-09-12T02:00:27.074Z,49.52
2018-09-12T02:00:27.675Z,49.62
2018-09-12T02:01:21.150Z,49.43
2018-09-12T02:01:21.727Z,49.24
2018-09-12T02:01:22.327Z,49.24
2018-09-12T02:01:22.926Z,49.24
2018-09-12T02:01:23.525Z,49.43
2018-09-12T02:01:24.126Z,49.43
2018-09-12T02:01:24.730Z,49.33
2018-09-12T02:01:25.327Z,49.52
2018-09-12T02:02:18.809Z,49.33
2018-09-12T02:02:19.377Z,49.72
2018-09-12T02:02:19.978Z,49.62
2018-09-12T02:02:20.578Z,49.72
2018-09-12T02:02:21.178Z,49.82
2018-09-12T02:02:21.781Z,49.72
2018-09-12T02:02:22.379Z,49.72
2018-09-12T02:02:22.978Z,49.82
2018-09-12T02:03:17.478Z,49.24
2018-09-12T02:03:18.053Z,49.82
2018-09-12T02:03:18.655Z,49.33
2018-09-12T02:03:19.258Z,49.33
2018-09-12T02:03:19.854Z,49.33
2018-09-12T02:03:20.453Z,49.62
2018-09-12T02:03:21.055Z,49.72
2018-09-12T02:03:21.657Z,49.72
2018-09-12T02:04:15.132Z,49.43
2018-09-12T02:04:15.706Z,49.33
2018-09-12T02:04:16.307Z,49.52
2018-09-12T02:04:16.907Z,49.33
2018-09-12T02:04:17.506Z,49.52
2018-09-12T02:04:18.107Z,49.52
2018-09-12T02:04:18.706Z,49.43
2018-09-12T02:04:19.307Z,49.43
2018-09-12T02:05:13.808Z,49.72
2018-09-12T02:05:14.381Z,49.72
2018-09-12T02:05:14.981Z,49.52
2018-09-12T02:05:15.586Z,49.62
2018-09-12T02:05:16.181Z,49.62
2018-09-12T02:05:16.790Z,49.52
2018-09-12T02:05:17.378Z,49.72
2018-09-12T02:05:17.981Z,49.72
2018-09-12T02:06:11.462Z,50.49
2018-09-12T02:06:12.036Z,50.49
2018-09-12T02:06:12.633Z,50.58
2018-09-12T02:06:13.234Z,50.58
2018-09-12T02:06:13.833Z,50.58
2018-09-12T02:06:14.432Z,50.58
2018-09-12T02:06:15.033Z,50.58
2018-09-12T02:06:15.634Z,50.68
2018-09-12T02:07:10.133Z,50.29
2018-09-12T02:07:10.708Z,50.39
2018-09-12T02:07:11.309Z,50.29
2018-09-12T02:07:11.908Z,50.20
2018-09-12T02:07:12.508Z,50.39
2018-09-12T02:07:13.107Z,50.39
2018-09-12T02:07:13.708Z,50.20
2018-09-12T02:07:14.309Z,50.20
2018-09-12T02:08:08.815Z,50.39
2018-09-12T02:08:09.383Z,50.39
2018-09-12T02:08:09.982Z,50.49
2018-09-12T02:08:10.583Z,50.49
2018-09-12T02:08:11.182Z,50.39
2018-09-12T02:08:11.786Z,50.58
2018-09-12T02:08:12.383Z,50.49
2018-09-12T02:08:12.982Z,50.58
2018-09-12T02:09:06.464Z,50.29
2018-09-12T02:09:07.037Z,50.49
2018-09-12T02:09:07.636Z,50.49
2018-09-12T02:09:08.240Z,50.58
2018-09-12T02:09:08.835Z,50.58
2018-09-12T02:09:09.435Z,50.58
2018-09-12T02:09:10.036Z,50.58
2018-09-12T02:09:10.635Z,50.58
2018-09-12T02:10:05.136Z,49.43
2018-09-12T02:10:05.741Z,49.43
2018-09-12T02:10:06.310Z,49.43
2018-09-12T02:10:06.912Z,49.52
2018-09-12T02:10:07.513Z,49.52
2018-09-12T02:10:08.110Z,49.62
2018-09-12T02:10:08.710Z,49.33
2018-09-12T02:10:09.311Z,49.43
2018-09-12T02:11:03.815Z,49.15
2018-09-12T02:11:04.386Z,49.15
2018-09-12T02:11:04.987Z,49.24
2018-09-12T02:11:05.589Z,49.24
2018-09-12T02:11:06.187Z,49.24
2018-09-12T02:11:06.786Z,49.24
2018-09-12T02:11:07.386Z,49.24
2018-09-12T02:11:07.989Z,49.33
2018-09-12T02:12:01.467Z,48.66
2018-09-12T02:12:02.039Z,48.83
2018-09-12T02:12:02.640Z,48.66
2018-09-12T02:12:03.242Z,48.66
2018-09-12T02:12:03.840Z,48.66
2018-09-12T02:12:04.441Z,48.85
2018-09-12T02:12:05.040Z,48.76
2018-09-12T02:12:05.639Z,48.76
2018-09-12T02:13:00.139Z,48.47
2018-09-12T02:13:00.714Z,48.38
2018-09-12T02:13:01.317Z,48.47
2018-09-12T02:13:01.913Z,48.66
2018-09-12T02:13:02.512Z,48.38
2018-09-12T02:13:03.113Z,48.57
2018-09-12T02:13:03.712Z,48.38
2018-09-12T02:13:04.313Z,48.47
2018-09-12T02:13:57.792Z,48.47
2018-09-12T02:13:58.367Z,48.47
2018-09-12T02:13:58.967Z,48.57
2018-09-12T02:13:59.567Z,49.05
2018-09-12T02:14:00.168Z,48.38
2018-09-12T02:14:00.767Z,48.38
2018-09-12T02:14:01.367Z,48.47
2018-09-12T02:14:01.967Z,48.66
2018-09-12T02:14:56.466Z,49.05
2018-09-12T02:14:57.043Z,49.05
2018-09-12T02:14:57.660Z,49.05
2018-09-12T02:14:58.243Z,49.15
2018-09-12T02:14:58.850Z,48.95
2018-09-12T02:14:59.447Z,49.15
2018-09-12T02:15:00.039Z,49.15
2018-09-12T02:15:00.641Z,49.15
2018-09-12T02:15:54.120Z,49.05
2018-09-12T02:15:54.695Z,48.85
2018-09-12T02:15:55.295Z,48.95
2018-09-12T02:15:55.893Z,48.95
2018-09-12T02:15:56.495Z,49.05
2018-09-12T02:15:57.093Z,48.85
2018-09-12T02:15:57.694Z,48.95
2018-09-12T02:15:58.294Z,48.85
2018-09-12T02:16:52.803Z,49.52
2018-09-12T02:16:53.370Z,49.82
2018-09-12T02:16:53.970Z,49.72
2018-09-12T02:16:54.570Z,49.82
2018-09-12T02:16:55.169Z,49.82
2018-09-12T02:16:55.768Z,49.82
2018-09-12T02:16:56.369Z,49.82
2018-09-12T02:16:56.970Z,49.82
2018-09-12T02:17:50.446Z,49.43
2018-09-12T02:17:51.022Z,49.43
2018-09-12T02:17:51.621Z,49.52
2018-09-12T02:17:52.222Z,49.43
2018-09-12T02:17:52.822Z,49.43
2018-09-12T02:17:53.421Z,49.43
2018-09-12T02:17:54.021Z,49.52
2018-09-12T02:17:54.620Z,49.52
2018-09-12T02:18:49.127Z,49.24
2018-09-12T02:18:49.696Z,49.43
2018-09-12T02:18:50.296Z,49.24
2018-09-12T02:18:50.898Z,49.82
2018-09-12T02:18:51.497Z,49.72
2018-09-12T02:18:52.096Z,49.82
2018-09-12T02:18:52.696Z,49.62
2018-09-12T02:18:53.296Z,49.62
2018-09-12T02:19:47.800Z,50.10
2018-09-12T02:19:48.373Z,50.01
2018-09-12T02:19:48.972Z,50.20
2018-09-12T02:19:49.573Z,50.20
2018-09-12T02:19:50.172Z,50.20
2018-09-12T02:19:50.771Z,50.39
2018-09-12T02:19:51.371Z,50.10
2018-09-12T02:19:51.975Z,50.29
2018-09-12T02:20:45.450Z,50.39
2018-09-12T02:20:46.025Z,50.39
2018-09-12T02:20:46.625Z,50.39
2018-09-12T02:20:47.227Z,50.39
2018-09-12T02:20:47.824Z,50.39
2018-09-12T02:20:48.424Z,50.29
2018-09-12T02:20:49.024Z,50.49
2018-09-12T02:20:49.626Z,50.49
2018-09-12T02:21:44.125Z,50.39
2018-09-12T02:21:44.703Z,50.39
2018-09-12T02:21:45.300Z,50.20
2018-09-12T02:21:45.901Z,50.20
2018-09-12T02:21:46.499Z,50.20
2018-09-12T02:21:47.104Z,50.49
2018-09-12T02:21:47.701Z,50.39
2018-09-12T02:21:48.300Z,50.29
2018-09-12T02:22:41.777Z,51.06
2018-09-12T02:22:42.353Z,50.87
2018-09-12T02:22:42.952Z,51.16
2018-09-12T02:22:43.553Z,51.06
2018-09-12T02:22:44.154Z,51.16
2018-09-12T02:22:44.753Z,51.16
2018-09-12T02:22:45.354Z,51.25
2018-09-12T02:22:45.952Z,51.06
2018-09-12T02:23:40.457Z,50.68
2018-09-12T02:23:41.027Z,50.78
2018-09-12T02:23:41.628Z,50.96
2018-09-12T02:23:42.229Z,50.78
2018-09-12T02:23:42.827Z,50.78
2018-09-12T02:23:43.428Z,50.87
2018-09-12T02:23:44.076Z,50.96
2018-09-12T02:23:44.627Z,50.58
2018-09-12T02:24:39.133Z,50.68
2018-09-12T02:24:39.708Z,50.87
2018-09-12T02:24:40.304Z,50.68
2018-09-12T02:24:40.910Z,50.78
2018-09-12T02:24:41.501Z,50.87
2018-09-12T02:24:42.102Z,50.78
2018-09-12T02:24:42.702Z,50.96
2018-09-12T02:24:43.302Z,50.87
2018-09-12T02:25:36.780Z,49.91
2018-09-12T02:25:37.354Z,49.82
2018-09-12T02:25:37.954Z,49.82
2018-09-12T02:25:38.556Z,49.91
2018-09-12T02:25:39.157Z,49.82
2018-09-12T02:25:39.754Z,49.91
2018-09-12T02:25:40.355Z,49.91
2018-09-12T02:25:40.955Z,49.91
2018-09-12T02:26:35.454Z,50.29
2018-09-12T02:26:36.040Z,50.29
2018-09-12T02:26:36.631Z,50.39
2018-09-12T02:26:37.231Z,50.20
2018-09-12T02:26:37.829Z,50.01
2018-09-12T02:26:38.430Z,50.10
2018-09-12T02:26:39.030Z,50.29
2018-09-12T02:26:39.631Z,50.39
2018-09-12T02:27:34.137Z,50.10
2018-09-12T02:27:34.706Z,50.10
2018-09-12T02:27:35.305Z,50.01
2018-09-12T02:27:35.904Z,50.01
2018-09-12T02:27:36.503Z,50.01
2018-09-12T02:27:37.104Z,50.01
2018-09-12T02:27:37.703Z,50.01
2018-09-12T02:27:38.304Z,50.10
2018-09-12T02:28:31.784Z,49.43
2018-09-12T02:28:32.358Z,49.43
2018-09-12T02:28:32.958Z,49.43
2018-09-12T02:28:33.558Z,49.52
2018-09-12T02:28:34.158Z,49.43
2018-09-12T02:28:34.758Z,49.52
2018-09-12T02:28:35.359Z,49.52
2018-09-12T02:28:35.958Z,49.43
2018-09-12T02:29:29.435Z,49.43
2018-09-12T02:29:30.010Z,49.33
2018-09-12T02:29:30.610Z,49.15
2018-09-12T02:29:31.210Z,49.43
2018-09-12T02:29:31.811Z,49.33
2018-09-12T02:29:32.411Z,49.43
2018-09-12T02:29:33.011Z,49.52
2018-09-12T02:29:33.610Z,49.43
2018-09-12T02:30:28.123Z,49.43
2018-09-12T02:30:28.689Z,49.43
2018-09-12T02:30:29.284Z,49.43
2018-09-12T02:30:29.885Z,49.43
2018-09-12T02:30:30.483Z,49.43
2018-09-12T02:30:31.084Z,49.52
2018-09-12T02:30:31.684Z,49.43
2018-09-12T02:30:32.284Z,49.33
2018-09-12T02:31:25.765Z,49.05
2018-09-12T02:31:26.339Z,49.05
2018-09-12T02:31:26.938Z,48.95
2018-09-12T02:31:27.539Z,48.38
2018-09-12T02:31:28.137Z,49.05
2018-09-12T02:31:28.737Z,48.47
2018-09-12T02:31:29.339Z,49.05
2018-09-12T02:31:29.940Z,49.05
2018-09-12T02:32:23.413Z,47.71
2018-09-12T02:32:23.990Z,47.61
2018-09-12T02:32:24.589Z,47.51
2018-09-12T02:32:25.190Z,47.51
2018-09-12T02:32:25.789Z,47.61
2018-09-12T02:32:26.390Z,47.51
2018-09-12T02:32:26.991Z,47.61
2018-09-12T02:32:27.592Z,47.61
2018-09-12T02:33:22.089Z,47.51
2018-09-12T02:33:22.668Z,47.51
2018-09-12T02:33:23.263Z,47.32
2018-09-12T02:33:23.863Z,47.22
2018-09-12T02:33:24.463Z,47.41
2018-09-12T02:33:25.063Z,47.41
2018-09-12T02:33:25.662Z,47.51
2018-09-12T02:33:26.261Z,47.22
2018-09-12T02:34:19.741Z,47.71
2018-09-12T02:34:20.318Z,47.80
2018-09-12T02:34:20.917Z,47.61
2018-09-12T02:34:21.518Z,47.80
2018-09-12T02:34:22.117Z,47.80
2018-09-12T02:34:22.717Z,47.80
2018-09-12T02:34:23.318Z,47.71
2018-09-12T02:34:23.918Z,47.89
2018-09-12T02:35:18.315Z,47.13
2018-09-12T02:35:18.891Z,47.13
2018-09-12T02:35:19.490Z,46.74
2018-09-12T02:35:20.091Z,47.03
2018-09-12T02:35:20.692Z,47.03
2018-09-12T02:35:21.290Z,47.13
2018-09-12T02:35:21.890Z,46.45
2018-09-12T02:35:22.492Z,46.74
2018-09-12T02:36:15.968Z,46.26
2018-09-12T02:36:16.543Z,46.17
2018-09-12T02:36:17.142Z,46.45
2018-09-12T02:36:17.744Z,46.36
2018-09-12T02:36:18.341Z,46.26
2018-09-12T02:36:18.941Z,46.36
2018-09-12T02:36:19.547Z,46.36
2018-09-12T02:36:20.144Z,46.26
2018-09-12T02:37:13.618Z,45.21
2018-09-12T02:37:14.192Z,45.21
2018-09-12T02:37:14.792Z,45.01
2018-09-12T02:37:15.394Z,45.11
2018-09-12T02:37:15.992Z,44.92
2018-09-12T02:37:16.593Z,45.40
2018-09-12T02:37:17.193Z,45.40
2018-09-12T02:37:17.798Z,45.40
2018-09-12T02:38:12.294Z,44.92
2018-09-12T02:38:12.869Z,45.11
2018-09-12T02:38:13.467Z,45.50
2018-09-12T02:38:14.070Z,45.21
2018-09-12T02:38:14.671Z,45.21
2018-09-12T02:38:15.269Z,45.21
2018-09-12T02:38:15.869Z,44.82
2018-09-12T02:38:16.468Z,45.11
2018-09-12T02:39:09.952Z,45.01
2018-09-12T02:39:10.521Z,44.92
2018-09-12T02:39:11.121Z,44.92
2018-09-12T02:39:11.720Z,45.30
2018-09-12T02:39:12.321Z,44.92
2018-09-12T02:39:12.921Z,45.01
2018-09-12T02:39:13.523Z,45.21
2018-09-12T02:39:14.121Z,45.21
2018-09-12T02:40:08.626Z,44.24
2018-09-12T02:40:09.195Z,44.44
2018-09-12T02:40:09.794Z,44.44
2018-09-12T02:40:10.396Z,44.24
2018-09-12T02:40:10.999Z,44.06
2018-09-12T02:40:11.594Z,44.34
2018-09-12T02:40:12.193Z,44.44
2018-09-12T02:40:12.795Z,44.44
2018-09-12T02:41:07.295Z,44.54
2018-09-12T02:41:07.877Z,44.73
2018-09-12T02:41:08.471Z,44.63
2018-09-12T02:41:09.072Z,44.63
2018-09-12T02:41:09.672Z,44.63
2018-09-12T02:41:10.271Z,44.54
2018-09-12T02:41:10.874Z,44.54
2018-09-12T02:41:11.471Z,44.63
2018-09-12T02:42:05.977Z,43.19
2018-09-12T02:42:06.548Z,43.19
2018-09-12T02:42:07.148Z,43.10
2018-09-12T02:42:07.749Z,43.19
2018-09-12T02:42:08.347Z,43.10
2018-09-12T02:42:08.948Z,43.00
2018-09-12T02:42:09.545Z,43.19
2018-09-12T02:42:10.146Z,43.10
2018-09-12T02:43:04.651Z,42.52
2018-09-12T02:43:05.224Z,42.33
2018-09-12T02:43:05.823Z,42.61
2018-09-12T02:43:06.424Z,42.43
2018-09-12T02:43:07.023Z,42.43
2018-09-12T02:43:07.624Z,42.43
2018-09-12T02:43:08.224Z,42.61
2018-09-12T02:43:08.825Z,42.52
2018-09-12T02:44:02.300Z,41.85
2018-09-12T02:44:02.878Z,41.37
2018-09-12T02:44:03.477Z,41.56
2018-09-12T02:44:04.079Z,41.66
2018-09-12T02:44:04.675Z,41.85
2018-09-12T02:44:05.276Z,41.66
2018-09-12T02:44:05.874Z,41.75
2018-09-12T02:44:06.482Z,41.75
2018-09-12T02:45:00.980Z,40.79
2018-09-12T02:45:01.551Z,40.99
2018-09-12T02:45:02.151Z,40.70
2018-09-12T02:45:02.753Z,40.89
2018-09-12T02:45:03.351Z,40.89
2018-09-12T02:45:03.951Z,41.17
2018-09-12T02:45:04.550Z,41.08
2018-09-12T02:45:05.150Z,41.08
2018-09-12T02:45:59.661Z,40.70
2018-09-12T02:46:00.227Z,40.70
2018-09-12T02:46:00.826Z,40.50
2018-09-12T02:46:01.436Z,40.50
2018-09-12T02:46:02.030Z,40.41
2018-09-12T02:46:02.627Z,40.50
2018-09-12T02:46:03.227Z,40.50
2018-09-12T02:46:03.826Z,40.60
2018-09-12T02:46:58.327Z,38.78
2018-09-12T02:46:58.902Z,38.59
2018-09-12T02:46:59.503Z,38.68
2018-09-12T02:47:00.102Z,38.29
2018-09-12T02:47:00.700Z,38.59
2018-09-12T02:47:01.304Z,38.68
2018-09-12T02:47:01.902Z,38.49
2018-09-12T02:47:02.502Z,38.59
2018-09-12T02:47:57.003Z,39.16
2018-09-12T02:47:57.578Z,39.06
2018-09-12T02:47:58.177Z,39.06
2018-09-12T02:47:58.780Z,39.45
2018-09-12T02:47:59.379Z,39.35
2018-09-12T02:47:59.977Z,39.16
2018-09-12T02:48:00.578Z,39.26
2018-09-12T02:48:01.177Z,39.26
2018-09-12T02:48:55.682Z,38.78
2018-09-12T02:48:56.256Z,39.26
2018-09-12T02:48:56.853Z,38.68
2018-09-12T02:48:57.458Z,38.78
2018-09-12T02:48:58.055Z,39.35
2018-09-12T02:48:58.652Z,38.87
2018-09-12T02:48:59.253Z,38.78
2018-09-12T02:48:59.852Z,38.78
2018-09-12T02:49:54.352Z,39.06
2018-09-12T02:49:54.930Z,39.54
2018-09-12T02:49:55.529Z,39.45
2018-09-12T02:49:56.129Z,39.54
2018-09-12T02:49:56.729Z,39.54
2018-09-12T02:49:57.329Z,39.54
2018-09-12T02:49:57.930Z,39.64
2018-09-12T02:49:58.529Z,39.64
2018-09-12T02:50:53.028Z,39.83
2018-09-12T02:50:53.604Z,39.73
2018-09-12T02:50:54.206Z,39.73
2018-09-12T02:50:54.807Z,39.73
2018-09-12T02:50:55.405Z,39.83
2018-09-12T02:50:56.004Z,39.93
2018-09-12T02:50:56.604Z,39.73
2018-09-12T02:50:57.204Z,39.73
2018-09-12T02:51:50.682Z,40.41
2018-09-12T02:51:51.258Z,40.41
2018-09-12T02:51:51.856Z,40.41
2018-09-12T02:51:52.458Z,40.41
2018-09-12T02:51:53.058Z,40.41
2018-09-12T02:51:53.658Z,40.41
2018-09-12T02:51:54.259Z,40.50
2018-09-12T02:51:54.858Z,40.50
2018-09-12T02:52:48.343Z,39.35
2018-09-12T02:52:48.909Z,39.35
2018-09-12T02:52:49.510Z,39.35
2018-09-12T02:52:50.109Z,39.35
2018-09-12T02:52:50.708Z,39.54
2018-09-12T02:52:51.310Z,39.45
2018-09-12T02:52:51.908Z,39.54
2018-09-12T02:52:52.510Z,39.35
2018-09-12T02:53:47.009Z,39.45
2018-09-12T02:53:47.585Z,39.45
2018-09-12T02:53:48.186Z,39.54
2018-09-12T02:53:48.784Z,39.45
2018-09-12T02:53:49.383Z,39.54
2018-09-12T02:53:49.985Z,39.54
2018-09-12T02:53:50.584Z,39.45
2018-09-12T02:53:51.184Z,39.54
2018-09-12T02:54:45.690Z,38.78
2018-09-12T02:54:46.260Z,39.06
2018-09-12T02:54:46.859Z,38.78
2018-09-12T02:54:47.461Z,39.06
2018-09-12T02:54:48.065Z,39.06
2018-09-12T02:54:48.658Z,38.68
2018-09-12T02:54:49.266Z,38.96
2018-09-12T02:54:49.858Z,38.78
2018-09-12T02:55:56.034Z,38.39
2018-09-12T02:55:56.609Z,38.49
2018-09-12T02:55:57.209Z,38.20
2018-09-12T02:55:57.854Z,38.39
2018-09-12T02:55:58.408Z,38.20
2018-09-12T02:55:59.008Z,38.39
2018-09-12T02:55:59.606Z,38.20
2018-09-12T02:56:00.207Z,38.29
2018-09-12T02:56:54.713Z,39.35
2018-09-12T02:56:55.284Z,39.45
2018-09-12T02:56:55.885Z,39.35
2018-09-12T02:56:56.486Z,39.35
2018-09-12T02:56:57.089Z,39.16
2018-09-12T02:56:57.687Z,39.45
2018-09-12T02:56:58.284Z,39.45
2018-09-12T02:56:58.885Z,39.73
2018-09-12T02:57:52.372Z,39.26
2018-09-12T02:57:52.938Z,38.78
2018-09-12T02:57:53.539Z,38.96
2018-09-12T02:57:54.137Z,39.16
2018-09-12T02:57:54.738Z,38.87
2018-09-12T02:57:55.337Z,38.78
2018-09-12T02:57:55.939Z,38.68
2018-09-12T02:57:56.535Z,38.49
2018-09-12T02:58:51.036Z,39.06
2018-09-12T02:58:51.614Z,38.96
2018-09-12T02:58:52.212Z,38.87
2018-09-12T02:58:52.812Z,39.06
2018-09-12T02:58:53.415Z,38.96
2018-09-12T02:58:54.014Z,38.96
2018-09-12T02:58:54.612Z,39.06
2018-09-12T02:58:55.212Z,39.06
2018-09-12T02:59:48.690Z,39.45
2018-09-12T02:59:49.267Z,39.54
2018-09-12T02:59:49.864Z,39.54
2018-09-12T02:59:50.465Z,39.35
2018-09-12T02:59:51.083Z,39.45
2018-09-12T02:59:51.665Z,39.45
2018-09-12T02:59:52.264Z,39.45
2018-09-12T02:59:52.865Z,39.54
2018-09-12T03:00:46.345Z,38.01
2018-09-12T03:00:46.918Z,38.29
2018-09-12T03:00:47.520Z,38.29
2018-09-12T03:00:48.120Z,38.10
2018-09-12T03:00:48.719Z,38.10
2018-09-12T03:00:49.319Z,37.91
2018-09-12T03:00:49.919Z,37.72
2018-09-12T03:00:50.519Z,37.91
2018-09-12T03:01:45.017Z,36.47
2018-09-12T03:01:45.593Z,36.28
2018-09-12T03:01:46.192Z,36.28
2018-09-12T03:01:46.795Z,36.38
2018-09-12T03:01:47.390Z,36.47
2018-09-12T03:01:47.997Z,36.28
2018-09-12T03:01:48.591Z,36.38
2018-09-12T03:01:49.190Z,36.47
2018-09-12T03:02:42.677Z,37.43
2018-09-12T03:02:43.247Z,37.53
2018-09-12T03:02:43.845Z,37.62
2018-09-12T03:02:44.444Z,37.72
2018-09-12T03:02:45.058Z,37.91
2018-09-12T03:02:45.644Z,37.91
2018-09-12T03:02:46.245Z,38.01
2018-09-12T03:02:46.844Z,37.62
2018-09-12T03:03:41.344Z,39.64
2018-09-12T03:03:41.923Z,39.64
2018-09-12T03:03:42.520Z,39.54
2018-09-12T03:03:43.119Z,39.54
2018-09-12T03:03:43.719Z,39.54